Time;durP1;ratioP1;P1;durP2;ratioP2;P2;SDS_P1;SDS_P2;PMS_P1;PMS_P2;Temp;Humidity;BMP_temperature;BMP_pressure;BME280_temperature;BME280_humidity;BME280_pressure;Samples;Min_cycle;Max_cycle;Signal;HPM_P1;HPM_P2
2024/01/02 00:01:44;;;;;;;0.40;0.40;;;3.20;99.90;;;;;;5031017;28;20195;-63
2024/01/02 00:04:11;;;;;;;1.20;0.40;;;3.20;99.90;;;;;;5020043;28;20599;-63
2024/01/02 00:06:38;;;;;;;0.40;0.40;;;3.40;99.90;;;;;;5030916;28;20233;-63
2024/01/02 00:09:05;;;;;;;0.50;0.40;;;3.40;99.90;;;;;;5029797;28;20197;-63
2024/01/02 00:11:33;;;;;;;1.40;0.40;;;3.50;99.90;;;;;;5031241;28;20232;-61
2024/01/02 00:14:00;;;;;;;0.20;0.20;;;3.40;99.90;;;;;;5014235;28;20201;-63
2024/01/02 00:16:27;;;;;;;0.27;0.20;;;3.20;99.90;;;;;;5030814;28;20270;-63
2024/01/02 00:18:54;;;;;;;0.97;0.33;;;3.30;99.90;;;;;;5030715;28;20204;-63
2024/01/02 00:21:21;;;;;;;1.17;0.20;;;3.30;99.90;;;;;;5031077;28;20726;-61
2024/01/02 00:23:48;;;;;;;0.40;0.20;;;3.20;99.90;;;;;;5031346;28;20244;-62
2024/01/02 00:26:15;;;;;;;1.13;0.30;;;3.30;99.90;;;;;;5023188;28;20635;-62
2024/01/02 00:28:43;;;;;;;0.30;0.13;;;3.30;99.90;;;;;;5030966;28;20201;-62
2024/01/02 00:31:10;;;;;;;0.20;0.20;;;3.20;99.90;;;;;;5030549;28;20241;-62
2024/01/02 00:33:37;;;;;;;0.73;0.30;;;3.30;99.90;;;;;;5020653;28;20209;-62
2024/01/02 00:36:05;;;;;;;0.43;0.10;;;3.40;99.90;;;;;;5011479;28;20226;-62
2024/01/02 00:38:33;;;;;;;0.70;0.20;;;3.50;99.90;;;;;;5021975;28;20258;-62
2024/01/02 00:41:00;;;;;;;0.20;0.20;;;3.40;99.90;;;;;;5030547;28;20201;-61
2024/01/02 00:43:27;;;;;;;0.10;0.10;;;3.50;99.90;;;;;;5034374;28;20246;-62
2024/01/02 00:45:56;;;;;;;0.27;0.27;;;3.40;99.90;;;;;;5034426;28;20286;-61
2024/01/02 00:48:23;;;;;;;0.20;0.20;;;3.50;99.90;;;;;;5034227;28;20231;-61
2024/01/02 00:50:50;;;;;;;0.20;0.20;;;3.40;99.90;;;;;;5026509;28;20746;-62
2024/01/02 00:53:17;;;;;;;0.20;0.20;;;3.30;99.90;;;;;;5031655;28;20205;-61
2024/01/02 00:55:44;;;;;;;0.70;0.37;;;3.20;99.90;;;;;;5005023;28;20276;-62
2024/01/02 00:58:11;;;;;;;0.17;0.10;;;3.40;99.90;;;;;;5029160;28;20738;-62
2024/01/02 01:00:38;;;;;;;0.20;0.20;;;3.40;99.90;;;;;;5034328;28;20203;-61
2024/01/02 01:03:06;;;;;;;0.20;0.20;;;3.20;99.90;;;;;;5030524;28;20587;-62
2024/01/02 01:05:33;;;;;;;1.03;0.23;;;3.10;99.90;;;;;;5020977;28;20228;-62
2024/01/02 01:08:00;;;;;;;0.17;0.17;;;3.10;99.90;;;;;;5026388;28;20201;-62
2024/01/02 01:10:27;;;;;;;0.30;0.30;;;3.20;99.90;;;;;;5014537;28;20209;-62
2024/01/02 01:12:54;;;;;;;0.20;0.20;;;3.20;99.90;;;;;;5014710;28;20201;-62
2024/01/02 01:15:21;;;;;;;0.37;0.30;;;3.20;99.90;;;;;;4995029;28;20213;-62
2024/01/02 01:17:47;;;;;;;0.43;0.43;;;3.20;99.90;;;;;;5027675;28;20755;-62
2024/01/02 01:20:16;;;;;;;0.10;0.10;;;2.90;99.90;;;;;;5034269;28;20204;-62
2024/01/02 01:22:43;;;;;;;0.23;0.10;;;3.00;99.90;;;;;;5034761;28;20668;-62
2024/01/02 01:25:10;;;;;;;0.10;0.10;;;3.00;99.90;;;;;;5034357;28;20765;-62
2024/01/02 01:27:37;;;;;;;0.10;0.10;;;3.10;99.90;;;;;;5029698;28;20200;-62
2024/01/02 01:30:04;;;;;;;0.20;0.10;;;3.20;99.90;;;;;;5030481;28;20216;-62
2024/01/02 01:32:31;;;;;;;0.17;0.17;;;3.00;99.90;;;;;;5027843;28;20284;-62
2024/01/02 01:34:58;;;;;;;0.67;0.10;;;3.20;99.90;;;;;;5014457;28;20225;-62
2024/01/02 01:37:26;;;;;;;0.20;0.17;;;3.10;99.90;;;;;;5017524;28;20256;-62
2024/01/02 01:39:56;;;;;;;0.23;0.10;;;3.20;99.90;;;;;;5014856;28;20268;-62
2024/01/02 01:42:23;;;;;;;0.33;0.10;;;3.10;99.90;;;;;;5029297;28;20299;-62
2024/01/02 01:44:50;;;;;;;0.10;0.10;;;3.30;99.90;;;;;;5035082;28;20220;-62
2024/01/02 01:47:18;;;;;;;0.40;0.13;;;3.30;99.90;;;;;;5034924;28;20200;-62
2024/01/02 01:49:45;;;;;;;1.70;0.30;;;3.30;99.90;;;;;;5033871;28;20204;-62
2024/01/02 01:52:12;;;;;;;0.43;0.20;;;;;;;;;;5034151;28;20275;-62
2024/01/02 01:54:41;;;;;;;0.10;0.10;;;3.00;99.90;;;;;;5030216;28;20267;-63
2024/01/02 01:57:08;;;;;;;1.00;0.10;;;3.00;99.90;;;;;;5034075;28;20695;-63
2024/01/02 01:59:36;;;;;;;0.20;0.10;;;3.00;99.90;;;;;;5037073;28;20630;-62
2024/01/02 02:02:07;;;;;;;0.20;0.20;;;3.10;99.90;;;;;;5028817;28;20247;-62
2024/01/02 02:04:41;;;;;;;0.13;0.00;;;3.30;99.90;;;;;;5018366;28;20201;-62
2024/01/02 02:07:08;;;;;;;0.47;0.20;;;3.30;99.90;;;;;;5015482;28;20263;-62
2024/01/02 02:09:35;;;;;;;1.50;0.10;;;3.50;99.90;;;;;;5008280;28;20204;-62
2024/01/02 02:12:04;;;;;;;0.27;0.10;;;3.40;99.90;;;;;;5033634;28;20221;-62
2024/01/02 02:14:31;;;;;;;0.10;0.10;;;3.30;99.90;;;;;;5034007;28;20254;-62
2024/01/02 02:16:58;;;;;;;1.17;0.10;;;3.40;99.90;;;;;;5037119;28;20212;-62
2024/01/02 02:19:25;;;;;;;0.17;0.17;;;3.30;99.90;;;;;;5027705;28;20201;-62
2024/01/02 02:21:53;;;;;;;1.13;0.10;;;3.50;99.90;;;;;;5031804;28;20196;-62
2024/01/02 02:24:22;;;;;;;0.97;0.20;;;3.40;99.90;;;;;;5032790;28;20261;-62
2024/01/02 02:26:49;;;;;;;0.20;0.20;;;3.50;99.90;;;;;;5032914;28;20235;-62
2024/01/02 02:29:15;;;;;;;0.20;0.20;;;3.40;99.90;;;;;;5032639;28;20259;-62
2024/01/02 02:31:42;;;;;;;0.20;0.20;;;3.40;99.90;;;;;;5018929;28;20697;-62
2024/01/02 02:34:09;;;;;;;0.10;0.10;;;3.60;99.90;;;;;;5032630;28;20201;-61
2024/01/02 02:36:36;;;;;;;0.57;0.10;;;3.50;99.90;;;;;;5012659;28;20705;-62
2024/01/02 02:39:03;;;;;;;1.03;0.20;;;3.40;99.90;;;;;;4992768;28;20208;-62
2024/01/02 02:41:31;;;;;;;0.20;0.20;;;3.50;99.90;;;;;;4993203;28;20678;-62
2024/01/02 02:43:59;;;;;;;0.30;0.30;;;;;;;;;;5013879;28;20213;-63
2024/01/02 02:46:25;;;;;;;2.23;0.30;;;3.30;99.90;;;;;;5032630;28;20216;-62
2024/01/02 02:48:52;;;;;;;0.10;0.10;;;3.50;99.90;;;;;;5032691;28;20208;-62
2024/01/02 02:51:19;;;;;;;0.30;0.10;;;3.50;99.90;;;;;;5022677;28;20220;-62
2024/01/02 02:53:46;;;;;;;0.80;0.10;;;3.60;99.90;;;;;;5032531;28;20201;-62
2024/01/02 02:56:15;;;;;;;0.20;0.03;;;3.50;99.90;;;;;;5025269;28;20607;-62
2024/01/02 02:58:44;;;;;;;0.60;0.10;;;3.70;99.90;;;;;;5032778;28;20283;-62
2024/01/02 03:01:21;;;;;;;0.93;0.10;;;3.50;99.90;;;;;;5031929;28;20746;-62
2024/01/02 03:03:48;;;;;;;0.10;0.10;;;3.50;99.90;;;;;;5016960;28;20200;-62
2024/01/02 03:06:15;;;;;;;0.10;0.10;;;3.50;99.90;;;;;;5031663;28;20319;-62
2024/01/02 03:08:42;;;;;;;0.10;0.10;;;;;;;;;;5022870;28;20742;-63
2024/01/02 03:11:09;;;;;;;0.07;0.07;;;;;;;;;;5032219;28;20204;-62
2024/01/02 03:13:37;;;;;;;0.23;0.10;;;;;;;;;;5032576;28;20208;-62
2024/01/02 03:16:06;;;;;;;0.03;0.03;;;;;;;;;;5032234;28;20728;-62
2024/01/02 03:18:33;;;;;;;0.20;0.10;;;3.30;99.90;;;;;;5016040;28;20198;-62
2024/01/02 03:21:00;;;;;;;0.77;0.10;;;;;;;;;;5016879;28;20673;-62
2024/01/02 03:23:27;;;;;;;0.43;0.00;;;3.30;99.90;;;;;;5032135;28;20690;-62
2024/01/02 03:25:54;;;;;;;0.83;0.30;;;;;;;;;;5029669;28;20282;-62
2024/01/02 03:28:21;;;;;;;0.33;0.30;;;3.50;99.90;;;;;;5032126;28;20679;-62
2024/01/02 03:30:48;;;;;;;0.10;0.10;;;3.40;99.90;;;;;;5028106;28;20298;-62
2024/01/02 03:33:17;;;;;;;0.73;0.53;;;3.60;99.90;;;;;;5020118;28;20220;-62
2024/01/02 03:35:45;;;;;;;0.20;0.20;;;3.50;99.90;;;;;;5032012;28;20235;-62
2024/01/02 03:38:12;;;;;;;0.10;0.10;;;3.60;99.90;;;;;;5032711;28;20213;-63
2024/01/02 03:40:39;;;;;;;0.17;0.10;;;3.60;99.90;;;;;;5032013;28;20212;-62
2024/01/02 03:43:06;;;;;;;0.70;0.10;;;3.60;99.90;;;;;;5032350;28;20201;-62
2024/01/02 03:45:33;;;;;;;0.47;0.10;;;3.50;99.90;;;;;;5021606;28;20224;-62
2024/01/02 03:48:01;;;;;;;0.00;0.00;;;3.40;99.90;;;;;;5031969;28;20227;-62
2024/01/02 03:50:30;;;;;;;0.10;0.10;;;3.70;99.90;;;;;;5031630;28;20208;-62
2024/01/02 03:52:57;;;;;;;2.33;0.20;;;3.60;99.90;;;;;;5032113;28;20246;-62
2024/01/02 03:55:24;;;;;;;0.97;0.10;;;3.60;99.90;;;;;;5032117;28;20363;-62
2024/01/02 03:57:50;;;;;;;0.80;0.30;;;3.70;99.90;;;;;;5025549;28;20259;-63
2024/01/02 04:00:18;;;;;;;0.40;0.40;;;;;;;;;;5028535;28;20200;-62
2024/01/02 04:02:45;;;;;;;0.33;0.10;;;;;;;;;;5031908;28;20200;-62
2024/01/02 04:05:13;;;;;;;0.73;0.13;;;;;;;;;;5031448;28;20794;-62
2024/01/02 04:07:41;;;;;;;0.17;0.10;;;;;;;;;;5023468;28;20199;-62
2024/01/02 04:10:09;;;;;;;0.43;0.10;;;3.80;99.90;;;;;;5024504;28;20631;-63
2024/01/02 04:12:36;;;;;;;0.10;0.00;;;3.40;99.90;;;;;;5025102;28;20267;-62
2024/01/02 04:15:03;;;;;;;0.10;0.10;;;4.00;99.90;;;;;;5031647;28;20282;-62
2024/01/02 04:17:30;;;;;;;0.27;0.10;;;3.90;99.90;;;;;;5032721;28;20209;-62
2024/01/02 04:19:57;;;;;;;0.60;0.10;;;;;;;;;;5034860;28;20208;-62
2024/01/02 04:22:24;;;;;;;0.00;0.00;;;3.30;99.90;;;;;;5031068;28;20270;-62
2024/01/02 04:24:52;;;;;;;0.50;0.20;;;3.90;99.90;;;;;;5028645;28;20282;-62
2024/01/02 04:27:19;;;;;;;2.00;0.40;;;4.00;99.90;;;;;;5018402;28;20205;-62
2024/01/02 04:29:46;;;;;;;0.00;0.00;;;3.80;99.90;;;;;;5015074;28;20271;-62
2024/01/02 04:32:15;;;;;;;1.13;0.10;;;3.90;99.90;;;;;;5015037;28;20271;-62
2024/01/02 04:34:42;;;;;;;1.07;0.10;;;;;;;;;;5013963;28;20221;-62
2024/01/02 04:37:09;;;;;;;0.10;0.10;;;;;;;;;;5027068;28;20213;-62
2024/01/02 04:39:36;;;;;;;0.70;0.00;;;;;;;;;;5034353;28;20205;-62
2024/01/02 04:42:05;;;;;;;0.10;0.00;;;;;;;;;;5034721;28;20619;-62
2024/01/02 04:44:32;;;;;;;0.23;0.00;;;;;;;;;;5034694;28;20201;-62
2024/01/02 04:47:00;;;;;;;0.20;0.10;;;3.80;99.90;;;;;;5031500;28;20259;-62
2024/01/02 04:49:28;;;;;;;1.20;0.10;;;;;;;;;;5024683;28;20204;-62
2024/01/02 04:51:55;;;;;;;1.43;0.03;;;;;;;;;;5023675;28;20808;-62
2024/01/02 04:54:22;;;;;;;0.10;0.10;;;3.80;99.90;;;;;;5014711;28;20282;-62
2024/01/02 04:56:49;;;;;;;0.10;0.10;;;;;;;;;;5014659;28;20208;-62
2024/01/02 04:59:18;;;;;;;0.00;0.00;;;;;;;;;;5009141;28;20265;-63
2024/01/02 05:01:45;;;;;;;0.30;0.00;;;;;;;;;;5015158;28;20735;-63
2024/01/02 05:04:12;;;;;;;0.10;0.10;;;4.30;99.90;;;;;;5012764;28;20208;-62
2024/01/02 05:06:39;;;;;;;0.17;0.13;;;4.40;99.90;;;;;;5007888;28;20240;-61
2024/01/02 05:09:08;;;;;;;0.10;0.10;;;4.40;99.90;;;;;;5014032;28;20209;-61
2024/01/02 05:11:37;;;;;;;0.10;0.10;;;4.30;99.90;;;;;;5014387;28;20200;-61
2024/01/02 05:14:04;;;;;;;0.10;0.00;;;4.40;99.90;;;;;;5017913;28;20228;-62
2024/01/02 05:16:32;;;;;;;0.10;0.10;;;4.30;99.90;;;;;;5015785;28;20233;-61
2024/01/02 05:18:59;;;;;;;0.30;0.07;;;4.40;99.90;;;;;;5008916;28;20209;-61
2024/01/02 05:21:27;;;;;;;0.20;0.10;;;4.60;99.90;;;;;;5005754;28;20230;-61
2024/01/02 05:23:54;;;;;;;0.20;0.20;;;4.30;99.90;;;;;;5014964;28;20198;-61
2024/01/02 05:26:21;;;;;;;0.20;0.10;;;4.50;99.90;;;;;;5010102;28;20276;-61
2024/01/02 05:28:48;;;;;;;0.10;0.10;;;4.40;99.90;;;;;;5014510;28;20248;-61
2024/01/02 05:31:15;;;;;;;0.10;0.10;;;4.30;99.90;;;;;;5016990;28;20267;-61
2024/01/02 05:33:43;;;;;;;0.03;0.00;;;4.20;99.90;;;;;;5008208;28;20251;-61
2024/01/02 05:36:10;;;;;;;0.00;0.00;;;4.20;99.90;;;;;;5026322;28;20231;-61
2024/01/02 05:38:37;;;;;;;0.10;0.10;;;4.20;99.90;;;;;;5014624;28;20566;-61
2024/01/02 05:41:04;;;;;;;0.03;0.00;;;4.20;99.90;;;;;;5013760;28;20641;-61
2024/01/02 05:43:31;;;;;;;0.10;0.10;;;4.30;99.90;;;;;;5013855;28;20205;-61
2024/01/02 05:45:58;;;;;;;0.63;0.63;;;4.30;99.90;;;;;;5011122;28;20279;-61
2024/01/02 05:48:25;;;;;;;0.00;0.00;;;4.30;99.90;;;;;;5012330;28;20200;-61
2024/01/02 05:50:53;;;;;;;0.00;0.00;;;4.30;99.90;;;;;;5013834;28;20563;-61
2024/01/02 05:53:20;;;;;;;0.73;0.10;;;4.40;99.90;;;;;;5017846;28;20230;-61
2024/01/02 05:55:47;;;;;;;0.10;0.10;;;4.30;99.90;;;;;;5020443;28;20705;-62
2024/01/02 05:58:14;;;;;;;0.30;0.10;;;4.30;99.90;;;;;;5013513;28;20208;-61
2024/01/02 06:00:41;;;;;;;0.00;0.00;;;4.20;99.90;;;;;;5013002;28;20209;-62
2024/01/02 06:03:08;;;;;;;0.23;0.10;;;4.20;99.90;;;;;;5010860;28;20256;-61
2024/01/02 06:05:35;;;;;;;0.10;0.07;;;4.20;99.90;;;;;;5012743;28;20237;-60
2024/01/02 06:08:04;;;;;;;0.03;0.03;;;4.30;99.90;;;;;;5013322;28;20625;-61
2024/01/02 06:10:31;;;;;;;0.10;0.10;;;4.20;99.90;;;;;;5012793;28;20249;-61
2024/01/02 06:12:58;;;;;;;2.10;0.47;;;4.30;99.90;;;;;;5006980;28;20267;-62
2024/01/02 06:15:25;;;;;;;0.10;0.10;;;4.10;99.90;;;;;;5014645;28;20270;-61
2024/01/02 06:17:53;;;;;;;0.20;0.10;;;4.30;99.90;;;;;;5011809;28;20628;-62
2024/01/02 06:20:20;;;;;;;0.10;0.00;;;4.30;99.90;;;;;;5010258;28;20225;-61
2024/01/02 06:22:47;;;;;;;0.10;0.10;;;4.30;99.90;;;;;;5007300;28;20273;-61
2024/01/02 06:25:16;;;;;;;0.10;0.10;;;4.30;99.90;;;;;;5011821;28;20229;-62
2024/01/02 06:27:43;;;;;;;0.40;0.10;;;4.10;99.90;;;;;;5009184;28;20216;-61
2024/01/02 06:30:10;;;;;;;0.20;0.10;;;4.10;99.90;;;;;;5011390;28;20258;-62
2024/01/02 06:32:38;;;;;;;0.00;0.00;;;4.20;99.90;;;;;;5018727;28;20237;-61
2024/01/02 06:35:08;;;;;;;0.10;0.10;;;4.20;99.90;;;;;;5012493;28;20604;-61
2024/01/02 06:37:35;;;;;;;0.53;0.10;;;4.30;99.90;;;;;;5013067;28;20209;-61
2024/01/02 06:40:03;;;;;;;0.27;0.17;;;4.30;99.90;;;;;;5008382;28;20207;-62
2024/01/02 06:42:32;;;;;;;0.10;0.10;;;4.40;99.90;;;;;;5004151;28;20198;-61
2024/01/02 06:44:58;;;;;;;0.60;0.10;;;4.50;99.90;;;;;;5003950;28;20217;-61
2024/01/02 06:47:25;;;;;;;0.10;0.10;;;4.50;99.90;;;;;;5007801;28;20205;-61
2024/01/02 06:49:52;;;;;;;2.03;0.10;;;4.50;99.90;;;;;;5008888;28;20205;-62
2024/01/02 06:52:19;;;;;;;0.13;0.13;;;4.70;99.90;;;;;;5010806;28;20209;-62
2024/01/02 06:54:46;;;;;;;0.13;0.10;;;4.70;99.90;;;;;;5024727;28;20280;-61
2024/01/02 06:57:13;;;;;;;2.10;0.13;;;4.60;99.90;;;;;;5019757;28;20264;-61
2024/01/02 06:59:42;;;;;;;0.10;0.10;;;4.50;99.90;;;;;;5009487;28;20738;-61
2024/01/02 07:02:09;;;;;;;0.10;0.10;;;4.60;99.90;;;;;;5008284;28;20205;-61
2024/01/02 07:04:38;;;;;;;0.83;0.10;;;4.80;99.90;;;;;;5013445;28;20267;-61
2024/01/02 07:07:05;;;;;;;0.10;0.10;;;4.70;99.90;;;;;;5000050;28;20205;-61
2024/01/02 07:09:32;;;;;;;1.40;1.30;;;4.80;99.90;;;;;;5003713;28;20199;-61
2024/01/02 07:12:03;;;;;;;5.53;4.27;;;;;;;;;;5006973;28;20262;-62
2024/01/02 07:14:30;;;;;;;6.53;4.37;;;4.80;99.90;;;;;;5008486;28;20255;-61
2024/01/02 07:17:02;;;;;;;0.97;0.70;;;5.00;99.90;;;;;;5004307;28;20678;-61
2024/01/02 07:19:29;;;;;;;0.60;0.30;;;5.00;99.90;;;;;;5001471;28;20205;-61
2024/01/02 07:21:56;;;;;;;0.23;0.23;;;;;;;;;;4999723;28;20262;-62
2024/01/02 07:24:24;;;;;;;0.30;0.30;;;4.90;99.90;;;;;;5001780;28;20558;-61
2024/01/02 07:26:51;;;;;;;0.50;0.30;;;5.00;99.90;;;;;;5008781;28;20205;-62
2024/01/02 07:29:19;;;;;;;0.20;0.20;;;;;;;;;;5005306;28;20212;-61
2024/01/02 07:31:46;;;;;;;0.37;0.37;;;;;;;;;;5003087;28;20206;-61
2024/01/02 07:34:15;;;;;;;2.20;0.50;;;;;;;;;;5004528;28;20654;-61
2024/01/02 07:36:42;;;;;;;0.40;0.40;;;;;;;;;;5001149;28;20218;-62
2024/01/02 07:39:09;;;;;;;0.40;0.40;;;5.10;99.90;;;;;;5000989;28;20203;-62
2024/01/02 07:41:36;;;;;;;1.60;0.50;;;5.10;99.90;;;;;;5000259;28;20676;-62
2024/01/02 07:44:04;;;;;;;0.50;0.50;;;5.00;99.90;;;;;;5006322;28;20265;-62
2024/01/02 07:46:31;;;;;;;0.70;0.40;;;;;;;;;;5001963;28;20254;-62
2024/01/02 07:48:57;;;;;;;0.37;0.37;;;;;;;;;;4999340;28;20624;-63
2024/01/02 07:51:26;;;;;;;0.60;0.40;;;5.10;99.90;;;;;;4999654;28;20577;-62
2024/01/02 07:53:53;;;;;;;1.33;1.00;;;5.10;99.90;;;;;;5006407;28;20284;-62
2024/01/02 07:56:21;;;;;;;1.40;1.30;;;4.70;99.90;;;;;;5007258;28;20245;-62
2024/01/02 07:58:48;;;;;;;1.43;0.90;;;5.10;99.90;;;;;;5003174;28;20207;-62
2024/01/02 08:01:17;;;;;;;1.33;1.20;;;4.60;99.90;;;;;;5003817;28;20216;-62
2024/01/02 08:03:44;;;;;;;1.30;1.20;;;5.20;99.90;;;;;;5013662;28;20193;-62
2024/01/02 08:06:11;;;;;;;3.47;1.83;;;5.10;99.90;;;;;;5004688;28;20296;-62
2024/01/02 08:08:39;;;;;;;0.80;0.80;;;5.00;99.90;;;;;;5011336;28;20446;-62
2024/01/02 08:11:08;;;;;;;3.73;1.20;;;5.20;99.90;;;;;;5010765;28;20255;-62
2024/01/02 08:13:35;;;;;;;3.23;2.13;;;5.10;99.90;;;;;;5009625;28;20383;-62
2024/01/02 08:16:03;;;;;;;3.57;2.07;;;5.10;99.90;;;;;;5012711;28;20227;-62
2024/01/02 08:18:30;;;;;;;2.23;2.03;;;5.10;99.90;;;;;;5005257;28;20298;-69
2024/01/02 08:20:57;;;;;;;2.97;1.87;;;5.10;99.90;;;;;;4997235;28;20247;-62
2024/01/02 08:23:25;;;;;;;2.07;1.90;;;4.80;99.90;;;;;;5005217;28;20202;-66
2024/01/02 08:25:53;;;;;;;5.10;1.77;;;4.90;99.90;;;;;;5013497;28;20230;-63
2024/01/02 08:28:20;;;;;;;4.70;2.60;;;4.90;99.90;;;;;;5004933;28;20261;-64
2024/01/02 08:30:47;;;;;;;7.17;2.60;;;4.50;99.90;;;;;;4998779;28;20666;-65
2024/01/02 08:33:14;;;;;;;2.20;2.10;;;4.90;99.90;;;;;;5021950;28;20225;-64
2024/01/02 08:35:41;;;;;;;6.77;3.50;;;4.80;99.90;;;;;;5009007;28;20227;-65
2024/01/02 08:38:08;;;;;;;6.03;2.40;;;4.80;99.90;;;;;;5018454;28;20201;-66
2024/01/02 08:40:35;;;;;;;2.80;2.13;;;;;;;;;;5009910;28;20268;-64
2024/01/02 08:43:04;;;;;;;3.17;2.80;;;4.80;99.90;;;;;;5013481;28;20253;-65
2024/01/02 08:45:31;;;;;;;5.53;3.47;;;5.00;99.90;;;;;;5021204;28;20302;-64
2024/01/02 08:47:58;;;;;;;5.53;3.00;;;4.90;99.90;;;;;;5024912;28;20209;-65
2024/01/02 08:50:25;;;;;;;2.23;1.50;;;5.10;99.90;;;;;;5026662;28;20489;-66
2024/01/02 08:52:52;;;;;;;4.37;1.63;;;5.10;99.90;;;;;;5034582;28;20292;-65
2024/01/02 08:55:19;;;;;;;2.10;1.10;;;5.00;99.90;;;;;;5022655;28;20289;-63
2024/01/02 08:57:46;;;;;;;2.30;1.03;;;5.10;99.90;;;;;;5008882;28;20562;-64
2024/01/02 09:00:15;;;;;;;1.77;1.13;;;5.10;99.90;;;;;;5011520;28;20627;-67
2024/01/02 09:02:43;;;;;;;0.73;0.73;;;5.20;99.90;;;;;;5012514;28;20214;-66
2024/01/02 09:05:10;;;;;;;0.80;0.77;;;;;;;;;;5024753;28;20227;-66
2024/01/02 09:07:37;;;;;;;3.07;1.20;;;5.20;99.90;;;;;;5020714;28;20225;-64
2024/01/02 09:10:05;;;;;;;2.83;1.00;;;4.90;99.90;;;;;;5029954;28;20222;-64
2024/01/02 09:12:34;;;;;;;2.33;1.20;;;5.10;99.90;;;;;;5008288;28;20227;-66
2024/01/02 09:15:01;;;;;;;4.97;2.90;;;5.20;99.90;;;;;;5014796;28;20224;-61
2024/01/02 09:17:29;;;;;;;8.83;4.67;;;5.00;99.90;;;;;;5013536;28;20232;-62
2024/01/02 09:20:00;;;;;;;24.63;9.03;;;5.10;99.90;;;;;;5022660;28;20243;-62
2024/01/02 09:22:27;;;;;;;13.33;4.80;;;5.20;99.90;;;;;;5014278;28;20227;-62
2024/01/02 09:24:56;;;;;;;3.40;1.60;;;5.20;99.90;;;;;;5014416;28;20315;-61
2024/01/02 09:27:24;;;;;;;1.97;1.73;;;5.30;99.90;;;;;;5016573;28;20593;-61
2024/01/02 09:29:51;;;;;;;1.87;1.40;;;;;;;;;;5020871;28;20201;-62
2024/01/02 09:32:21;;;;;;;1.60;1.50;;;5.50;99.90;;;;;;5014200;28;20209;-62
2024/01/02 09:34:53;;;;;;;1.70;1.50;;;;;;;;;;5011918;28;20234;-63
2024/01/02 09:37:20;;;;;;;3.33;1.60;;;;;;;;;;5013548;28;20202;-66
2024/01/02 09:39:48;;;;;;;4.83;2.20;;;5.60;99.90;;;;;;5012471;28;20207;-60
2024/01/02 09:42:28;;;;;;;4.23;2.40;;;5.60;99.90;;;;;;5013213;28;20259;-65
2024/01/02 09:45:05;;;;;;;3.43;1.83;;;5.80;99.90;;;;;;5006523;28;20643;-64
2024/01/02 09:47:56;;;;;;;4.27;3.07;;;5.80;99.90;;;;;;5012372;28;20676;-66
2024/01/02 09:50:32;;;;;;;6.83;4.40;;;5.80;99.90;;;;;;5012236;28;20210;-65
2024/01/02 09:53:16;;;;;;;3.67;2.80;;;;;;;;;;5013827;28;20205;-66
2024/01/02 09:55:55;;;;;;;3.07;2.77;;;5.60;99.90;;;;;;5013459;28;20614;-64
2024/01/02 09:58:30;;;;;;;11.70;7.00;;;6.40;99.90;;;;;;5013931;28;20589;-64
2024/01/02 10:01:09;;;;;;;11.23;6.47;;;6.00;99.90;;;;;;5013812;28;20207;-64
2024/01/02 10:03:57;;;;;;;8.53;4.23;;;5.60;99.90;;;;;;5013442;28;20222;-64
2024/01/02 10:06:38;;;;;;;3.43;2.37;;;6.10;99.90;;;;;;5030414;28;20286;-64
2024/01/02 10:09:22;;;;;;;2.60;2.40;;;6.20;99.90;;;;;;5032596;28;20196;-62
2024/01/02 10:12:10;;;;;;;22.37;13.83;;;6.30;99.90;;;;;;5033139;28;20204;-63
2024/01/02 10:14:49;;;;;;;42.47;26.47;;;6.40;99.90;;;;;;5031762;28;20289;-64
2024/01/02 10:17:25;;;;;;;28.30;17.80;;;6.40;99.90;;;;;;5032423;28;20280;-65
2024/01/02 10:20:03;;;;;;;14.53;9.33;;;6.50;99.90;;;;;;5025720;28;20556;-63
2024/01/02 10:22:42;;;;;;;8.53;6.90;;;6.50;99.90;;;;;;5026427;28;20645;-63
2024/01/02 10:25:11;;;;;;;8.17;6.03;;;6.70;99.90;;;;;;5032620;28;20730;-64
2024/01/02 10:27:46;;;;;;;2.63;2.43;;;6.70;99.90;;;;;;5031470;28;20299;-64
2024/01/02 10:30:17;;;;;;;4.00;3.00;;;;;;;;;;5027571;28;20253;-65
2024/01/02 10:32:48;;;;;;;3.67;3.20;;;;;;;;;;5028711;28;20200;-63
2024/01/02 10:35:21;;;;;;;2.63;2.40;;;7.20;99.90;;;;;;5032342;28;20759;-64
2024/01/02 10:38:00;;;;;;;3.17;2.73;;;7.40;99.90;;;;;;5025315;28;20672;-63
2024/01/02 10:40:28;;;;;;;3.93;3.63;;;7.50;99.90;;;;;;5030735;28;20303;-63
2024/01/02 10:43:06;;;;;;;4.63;3.57;;;7.70;99.90;;;;;;5042738;28;20253;-63
2024/01/02 10:45:38;;;;;;;3.57;3.20;;;7.80;99.90;;;;;;5044074;28;20215;-64
2024/01/02 10:48:24;;;;;;;4.43;2.50;;;8.00;99.90;;;;;;5038870;28;20235;-63
2024/01/02 10:50:58;;;;;;;2.43;1.97;;;8.00;99.90;;;;;;5023882;28;20725;-65
2024/01/02 10:53:36;;;;;;;3.33;1.30;;;8.20;99.90;;;;;;5032126;28;20204;-63
2024/01/02 10:56:07;;;;;;;2.10;1.00;;;;;;;;;;5043919;28;20706;-65
2024/01/02 10:58:43;;;;;;;1.57;1.43;;;8.30;99.90;;;;;;5052283;28;20684;-67
2024/01/02 11:01:16;;;;;;;1.17;0.97;;;8.40;99.90;;;;;;5051677;28;20270;-70
2024/01/02 11:03:50;;;;;;;2.77;1.03;;;8.40;99.90;;;;;;5041317;28;20194;-67
2024/01/02 11:06:26;;;;;;;2.27;1.67;;;8.40;99.90;;;;;;5036950;28;20293;-66
2024/01/02 11:09:06;;;;;;;1.20;1.20;;;8.40;99.90;;;;;;5032261;28;20291;-65
2024/01/02 11:11:37;;;;;;;1.30;1.20;;;8.40;99.90;;;;;;5031981;28;20287;-64
2024/01/02 11:14:04;;;;;;;2.07;1.73;;;;;;;;;;5037168;28;20244;-65
2024/01/02 11:16:33;;;;;;;0.90;0.90;;;8.40;99.90;;;;;;5043811;28;20216;-64
2024/01/02 11:19:04;;;;;;;4.97;1.00;;;8.50;99.90;;;;;;5051595;28;20579;-65
2024/01/02 11:21:39;;;;;;;1.30;1.17;;;8.70;99.90;;;;;;5034027;28;20263;-64
2024/01/02 11:24:13;;;;;;;1.07;0.93;;;8.70;99.90;;;;;;5024738;28;20632;-63
2024/01/02 11:26:44;;;;;;;0.77;0.77;;;8.60;99.90;;;;;;5031182;28;20258;-64
2024/01/02 11:29:17;;;;;;;0.97;0.60;;;8.60;99.90;;;;;;5040168;28;20198;-65
2024/01/02 11:31:48;;;;;;;1.00;0.90;;;8.60;99.90;;;;;;5011709;28;20297;-62
2024/01/02 11:34:33;;;;;;;3.40;1.47;;;8.60;99.90;;;;;;5030436;28;20262;-66
2024/01/02 11:37:12;;;;;;;2.83;1.07;;;8.60;99.90;;;;;;5024457;28;20201;-64
2024/01/02 11:39:55;;;;;;;1.33;1.23;;;8.60;99.90;;;;;;5024894;28;20207;-64
2024/01/02 11:42:34;;;;;;;1.17;1.10;;;8.70;99.90;;;;;;5033824;28;20266;-65
2024/01/02 11:45:09;;;;;;;1.23;0.50;;;8.70;99.90;;;;;;5031399;28;20220;-64
2024/01/02 11:47:42;;;;;;;1.07;0.90;;;8.70;99.90;;;;;;5031565;28;20204;-64
2024/01/02 11:50:10;;;;;;;2.33;0.80;;;8.60;99.90;;;;;;5031225;28;20209;-65
2024/01/02 11:52:56;;;;;;;0.97;0.97;;;8.60;99.90;;;;;;5025459;28;20208;-65
2024/01/02 11:55:38;;;;;;;1.00;0.97;;;8.60;99.90;;;;;;5028137;28;20310;-64
2024/01/02 11:58:12;;;;;;;1.58;1.38;;;8.60;99.90;;;;;;5036626;28;20523;-65
2024/01/02 12:00:47;;;;;;;1.50;1.03;;;8.60;99.90;;;;;;5033573;28;20248;-65
2024/01/02 12:03:31;;;;;;;1.77;1.10;;;8.60;99.90;;;;;;5031201;28;20675;-64
2024/01/02 12:06:03;;;;;;;1.30;1.20;;;;;;;;;;5034711;28;20231;-64
2024/01/02 12:08:42;;;;;;;3.07;2.40;;;8.60;99.90;;;;;;5034837;28;20200;-64
2024/01/02 12:11:14;;;;;;;2.37;1.57;;;;;;;;;;5036720;28;20196;-64
2024/01/02 12:13:59;;;;;;;1.97;1.10;;;8.60;99.90;;;;;;5030576;28;20258;-63
2024/01/02 12:16:30;;;;;;;3.33;2.30;;;8.60;99.90;;;;;;5029844;28;20699;-63
2024/01/02 12:19:01;;;;;;;1.87;1.33;;;8.60;99.90;;;;;;5030357;28;20205;-64
2024/01/02 12:21:31;;;;;;;1.80;1.13;;;;;;;;;;5031235;28;20208;-63
2024/01/02 12:24:01;;;;;;;1.37;1.23;;;8.50;99.90;;;;;;5031183;28;20253;-63
2024/01/02 12:26:34;;;;;;;1.60;1.50;;;8.50;99.90;;;;;;5033336;28;20282;-63
2024/01/02 12:29:02;;;;;;;3.60;1.23;;;8.40;99.90;;;;;;5030984;28;20201;-64
2024/01/02 12:31:34;;;;;;;1.17;1.13;;;;;;;;;;5030849;28;20250;-64
2024/01/02 12:34:15;;;;;;;2.33;1.23;;;8.40;99.90;;;;;;5029851;28;20196;-64
2024/01/02 12:36:48;;;;;;;2.83;1.23;;;8.40;99.90;;;;;;5030938;28;20658;-67
2024/01/02 12:39:19;;;;;;;1.10;0.97;;;;;;;;;;5033078;28;20205;-65
2024/01/02 12:41:53;;;;;;;4.87;3.33;;;8.30;99.90;;;;;;5034518;28;20732;-65
2024/01/02 12:44:21;;;;;;;1.70;1.60;;;8.30;99.90;;;;;;5036463;28;20296;-65
2024/01/02 12:46:50;;;;;;;2.83;2.20;;;7.40;99.90;;;;;;5035148;28;20211;-63
2024/01/02 12:49:19;;;;;;;2.90;2.70;;;;;;;;;;5035151;28;20207;-62
2024/01/02 12:51:47;;;;;;;2.97;2.10;;;7.90;99.90;;;;;;5034619;28;20669;-63
2024/01/02 12:54:19;;;;;;;3.47;2.00;;;8.30;99.90;;;;;;5034192;28;20209;-65
2024/01/02 12:56:52;;;;;;;2.33;2.07;;;8.30;99.90;;;;;;5034631;28;20634;-63
2024/01/02 12:59:20;;;;;;;2.27;2.10;;;;;;;;;;5034548;28;20243;-63
2024/01/02 13:01:48;;;;;;;2.40;1.93;;;;;;;;;;5026332;28;20285;-63
2024/01/02 13:04:15;;;;;;;2.33;2.10;;;8.30;99.90;;;;;;5035825;28;20563;-62
2024/01/02 13:06:44;;;;;;;3.50;3.17;;;8.40;99.90;;;;;;5035652;28;20629;-66
2024/01/02 13:09:11;;;;;;;2.93;2.57;;;8.40;99.90;;;;;;5028900;28;20208;-65
2024/01/02 13:11:40;;;;;;;2.77;2.33;;;8.40;99.90;;;;;;5034142;28;20202;-65
2024/01/02 13:14:11;;;;;;;4.57;3.40;;;8.40;99.90;;;;;;5034151;28;20224;-65
2024/01/02 13:16:39;;;;;;;3.00;2.70;;;;;;;;;;5033346;28;20697;-65
2024/01/02 13:19:07;;;;;;;2.33;2.17;;;8.40;99.90;;;;;;5033709;28;20204;-63
2024/01/02 13:21:37;;;;;;;3.40;2.73;;;8.40;99.90;;;;;;5033758;28;20196;-63
2024/01/02 13:24:08;;;;;;;4.43;3.47;;;8.40;99.90;;;;;;5033681;28;20197;-64